createdAt,value
2023-01-31T00:01:49.007Z,17.65
2023-01-31T00:04:16.268Z,20.38
2023-01-31T00:06:50.845Z,17.23
2023-01-31T00:09:18.349Z,13.77
2023-01-31T00:11:45.810Z,23.38
2023-01-31T00:14:18.460Z,20.95
2023-01-31T00:16:45.887Z,17.70
2023-01-31T00:19:13.185Z,20.90
2023-01-31T00:21:43.680Z,22.35
2023-01-31T00:24:14.940Z,16.75
2023-01-31T00:26:42.685Z,11.73
2023-01-31T00:29:10.531Z,16.10
2023-01-31T00:31:38.834Z,13.90
2023-01-31T00:34:06.858Z,17.55
2023-01-31T00:36:35.993Z,14.93
2023-01-31T00:39:05.559Z,18.38
2023-01-31T00:41:33.866Z,13.30
2023-01-31T00:44:01.904Z,19.83
2023-01-31T00:46:31.408Z,23.08
2023-01-31T00:48:59.523Z,22.92
2023-01-31T00:51:27.108Z,22.05
2023-01-31T00:53:55.057Z,21.08
2023-01-31T00:56:24.326Z,18.85
2023-01-31T00:58:52.396Z,19.83
2023-01-31T01:01:23.067Z,18.83
2023-01-31T01:03:51.841Z,20.23
2023-01-31T01:06:19.723Z,14.02
2023-01-31T01:08:48.057Z,19.08
2023-01-31T01:11:25.428Z,17.48
2023-01-31T01:13:53.415Z,17.25
2023-01-31T01:16:24.025Z,14.65
2023-01-31T01:18:54.802Z,13.65
2023-01-31T01:21:25.613Z,19.85
2023-01-31T01:23:55.339Z,21.27
2023-01-31T01:26:26.167Z,18.67
2023-01-31T01:28:54.915Z,12.07
2023-01-31T01:31:22.717Z,19.23
2023-01-31T01:33:52.267Z,16.70
2023-01-31T01:36:22.011Z,14.60
2023-01-31T01:38:49.802Z,14.80
2023-01-31T01:41:17.484Z,17.80
2023-01-31T01:43:46.239Z,15.60
2023-01-31T01:46:31.732Z,19.48
2023-01-31T01:49:20.962Z,16.40
2023-01-31T01:51:51.763Z,18.70
2023-01-31T01:54:25.854Z,19.80
2023-01-31T01:56:58.282Z,24.17
2023-01-31T01:59:31.304Z,20.35
2023-01-31T02:01:58.738Z,13.48
2023-01-31T02:04:34.136Z,15.07
2023-01-31T02:07:02.758Z,20.38
2023-01-31T02:09:32.952Z,20.48
2023-01-31T02:12:00.338Z,12.63
2023-01-31T02:14:28.135Z,18.13
2023-01-31T02:16:55.594Z,22.95
2023-01-31T02:19:43.455Z,15.50
2023-01-31T02:22:23.906Z,20.50
2023-01-31T02:25:29.479Z,16.40
2023-01-31T02:31:07.579Z,23.08
2023-01-31T02:33:52.595Z,16.65
2023-01-31T02:36:52.346Z,18.83
2023-01-31T02:39:28.263Z,26.92
2023-01-31T02:42:13.032Z,26.27
2023-01-31T02:45:15.585Z,19.63
2023-01-31T02:47:55.230Z,17.05
2023-01-31T02:50:38.617Z,19.38
2023-01-31T02:53:12.883Z,18.10
2023-01-31T02:56:13.512Z,16.98
2023-01-31T02:58:44.865Z,24.40
2023-01-31T03:01:17.490Z,21.35
2023-01-31T03:03:46.709Z,15.18
2023-01-31T03:06:26.972Z,19.60
2023-01-31T03:09:22.294Z,21.08
2023-01-31T03:12:09.197Z,18.63
2023-01-31T03:14:55.400Z,16.17
2023-01-31T03:17:45.240Z,20.50
2023-01-31T03:20:45.668Z,25.10
2023-01-31T03:23:23.209Z,21.60
2023-01-31T03:26:03.539Z,22.45
2023-01-31T03:29:03.278Z,24.40
2023-01-31T03:31:54.440Z,28.70
2023-01-31T03:34:36.181Z,16.92
2023-01-31T03:38:02.970Z,21.05
2023-01-31T03:40:41.264Z,20.17
2023-01-31T03:46:44.941Z,27.13
2023-01-31T03:49:50.982Z,26.25
2023-01-31T03:52:41.795Z,21.70
2023-01-31T03:55:20.098Z,26.92
2023-01-31T03:57:52.704Z,24.40
2023-01-31T04:00:22.934Z,22.00
2023-01-31T04:03:01.247Z,26.40
2023-01-31T04:05:32.506Z,27.58
2023-01-31T04:08:01.279Z,21.30
2023-01-31T04:10:31.040Z,20.83
2023-01-31T04:12:58.457Z,19.60
2023-01-31T04:15:25.849Z,25.45
2023-01-31T04:17:53.149Z,18.63
2023-01-31T04:20:20.481Z,25.30
2023-01-31T04:22:47.725Z,27.05
2023-01-31T04:25:15.045Z,25.30
2023-01-31T04:27:42.333Z,22.80
2023-01-31T04:30:10.766Z,23.52
2023-01-31T04:32:38.015Z,27.75
2023-01-31T04:35:06.059Z,19.75
2023-01-31T04:37:33.986Z,25.33
2023-01-31T04:40:01.657Z,29.08
2023-01-31T04:42:28.992Z,23.98
2023-01-31T04:44:56.240Z,26.98
2023-01-31T04:47:23.503Z,28.88
2023-01-31T04:49:50.807Z,22.52
2023-01-31T04:52:18.022Z,28.23
2023-01-31T04:54:45.404Z,27.17
2023-01-31T04:57:12.692Z,21.88
2023-01-31T04:59:39.959Z,20.55
2023-01-31T05:02:07.369Z,21.23
2023-01-31T05:04:34.699Z,24.50
2023-01-31T05:07:01.948Z,30.80
2023-01-31T05:09:29.197Z,29.02
2023-01-31T05:11:56.456Z,31.23
2023-01-31T05:14:23.763Z,26.02
2023-01-31T05:16:51.089Z,23.25
2023-01-31T05:19:18.360Z,23.52
2023-01-31T05:22:00.920Z,21.20
2023-01-31T05:24:31.396Z,25.17
2023-01-31T05:27:01.594Z,26.05
2023-01-31T05:29:31.041Z,23.42
2023-01-31T05:32:00.326Z,31.00
2023-01-31T05:34:30.532Z,28.20
2023-01-31T05:36:57.748Z,26.40
2023-01-31T05:39:25.328Z,18.83
2023-01-31T05:41:55.276Z,18.85
2023-01-31T05:44:23.005Z,25.55
2023-01-31T05:46:50.552Z,24.40
2023-01-31T05:49:17.917Z,26.33
2023-01-31T05:51:45.167Z,24.10
2023-01-31T05:54:12.612Z,27.88
2023-01-31T05:56:40.039Z,24.52
2023-01-31T05:59:07.560Z,20.75
2023-01-31T06:01:34.825Z,22.08
2023-01-31T06:04:02.127Z,22.42
2023-01-31T06:06:29.442Z,22.05
2023-01-31T06:08:56.758Z,25.85
2023-01-31T06:11:25.216Z,19.88
2023-01-31T06:13:52.691Z,22.73
2023-01-31T06:16:20.031Z,21.85
2023-01-31T06:18:47.361Z,24.40
2023-01-31T06:21:16.285Z,23.05
2023-01-31T06:23:46.196Z,24.60
2023-01-31T06:26:14.432Z,24.73
2023-01-31T06:28:41.788Z,30.50
2023-01-31T06:31:10.507Z,25.02
2023-01-31T06:33:45.992Z,25.88
2023-01-31T06:36:18.439Z,26.88
2023-01-31T06:38:50.788Z,31.95
2023-01-31T06:41:19.330Z,23.17
2023-01-31T06:43:46.617Z,25.30
2023-01-31T06:46:13.965Z,21.00
2023-01-31T06:48:41.289Z,22.73
2023-01-31T06:51:08.684Z,23.55
2023-01-31T06:53:36.138Z,21.88
2023-01-31T06:56:03.507Z,25.75
2023-01-31T06:58:30.808Z,21.30
2023-01-31T07:01:03.547Z,20.08
2023-01-31T07:03:31.358Z,21.65
2023-01-31T07:05:58.777Z,24.70
2023-01-31T07:08:26.095Z,27.02
2023-01-31T07:10:53.549Z,22.95
2023-01-31T07:13:20.898Z,23.58
2023-01-31T07:15:48.221Z,22.45
2023-01-31T07:18:15.475Z,27.15
2023-01-31T07:20:43.119Z,19.95
2023-01-31T07:23:10.516Z,24.30
2023-01-31T07:25:37.784Z,18.35
2023-01-31T07:28:05.253Z,23.35
2023-01-31T07:30:32.580Z,26.42
2023-01-31T07:33:00.761Z,18.15
2023-01-31T07:35:28.274Z,17.40
2023-01-31T07:37:55.564Z,24.10
2023-01-31T07:40:22.805Z,17.77
2023-01-31T07:42:50.290Z,18.05
2023-01-31T07:45:23.456Z,15.35
2023-01-31T07:47:51.848Z,20.10
2023-01-31T07:50:20.563Z,21.67
2023-01-31T07:52:49.220Z,19.80
2023-01-31T07:55:16.680Z,19.98
2023-01-31T07:57:43.989Z,18.13
2023-01-31T08:00:31.034Z,15.70
2023-01-31T08:03:16.913Z,19.00
2023-01-31T08:05:46.879Z,16.10
2023-01-31T08:08:14.265Z,15.40
2023-01-31T08:10:41.692Z,16.15
2023-01-31T08:13:11.136Z,17.00
2023-01-31T08:15:38.503Z,13.27
2023-01-31T08:18:06.611Z,20.52
2023-01-31T08:20:37.421Z,14.13
2023-01-31T08:23:04.865Z,18.02
2023-01-31T08:25:32.368Z,15.77
2023-01-31T08:28:00.474Z,19.05
2023-01-31T08:30:29.654Z,15.80
2023-01-31T08:32:57.243Z,14.32
2023-01-31T08:35:26.297Z,16.08
2023-01-31T08:38:00.929Z,15.68
2023-01-31T08:40:34.357Z,13.43
2023-01-31T08:43:01.873Z,12.90
2023-01-31T08:45:30.349Z,11.43
2023-01-31T08:48:00.166Z,13.20
2023-01-31T08:50:30.157Z,14.75
2023-01-31T08:53:04.145Z,13.27
2023-01-31T08:55:34.409Z,12.85
2023-01-31T08:58:02.643Z,10.85
2023-01-31T09:00:30.226Z,13.05
2023-01-31T09:03:00.105Z,17.10
2023-01-31T09:05:29.158Z,15.23
2023-01-31T09:07:56.566Z,13.65
2023-01-31T09:10:24.635Z,16.45
2023-01-31T09:12:52.022Z,14.57
2023-01-31T09:15:19.721Z,16.20
2023-01-31T09:17:47.220Z,13.52
2023-01-31T09:20:14.629Z,10.70
2023-01-31T09:22:41.931Z,16.50
2023-01-31T09:25:09.895Z,8.27
2023-01-31T09:27:38.578Z,14.15
2023-01-31T09:30:10.056Z,10.98
2023-01-31T09:32:38.651Z,15.75
2023-01-31T09:35:06.439Z,9.00
2023-01-31T09:37:33.808Z,13.88
2023-01-31T09:40:01.055Z,9.48
2023-01-31T09:42:42.278Z,11.80
2023-01-31T09:45:25.681Z,14.20
2023-01-31T09:47:56.669Z,12.25
2023-01-31T09:50:30.798Z,15.25
2023-01-31T09:52:58.521Z,14.80
2023-01-31T09:55:51.348Z,8.43
2023-01-31T09:58:27.550Z,10.38
2023-01-31T10:01:03.360Z,16.92
2023-01-31T10:03:42.694Z,13.70
2023-01-31T10:06:40.959Z,12.68
2023-01-31T10:09:22.834Z,13.32
2023-01-31T10:12:11.875Z,13.48
2023-01-31T10:15:05.061Z,10.35
2023-01-31T10:17:44.194Z,14.18
2023-01-31T10:20:22.386Z,8.32
2023-01-31T10:23:14.006Z,9.38
2023-01-31T10:25:48.481Z,14.32
2023-01-31T10:28:30.586Z,12.82
2023-01-31T10:31:07.454Z,14.23
2023-01-31T10:34:08.525Z,9.30
2023-01-31T10:37:01.280Z,11.57
2023-01-31T10:39:40.670Z,12.98
2023-01-31T10:42:31.590Z,12.88
2023-01-31T10:45:18.907Z,14.02
2023-01-31T10:47:52.226Z,16.42
2023-01-31T10:50:28.518Z,12.90
2023-01-31T10:53:13.832Z,13.48
2023-01-31T10:55:52.983Z,12.13
2023-01-31T10:58:25.023Z,13.15
2023-01-31T11:00:52.703Z,10.45
2023-01-31T11:03:20.165Z,11.82
2023-01-31T11:05:54.804Z,12.75
2023-01-31T11:10:55.072Z,11.95
2023-01-31T11:13:23.234Z,14.23
2023-01-31T11:15:54.314Z,12.02
2023-01-31T11:18:46.636Z,16.00
2023-01-31T11:21:30.180Z,13.18
2023-01-31T11:24:15.839Z,13.38
2023-01-31T11:26:52.847Z,8.20
2023-01-31T11:29:34.277Z,12.93
2023-01-31T11:32:05.449Z,17.55
2023-01-31T11:34:33.865Z,20.60
2023-01-31T11:37:18.927Z,13.35
2023-01-31T11:40:19.773Z,10.88
2023-01-31T11:42:52.659Z,18.33
2023-01-31T11:45:27.678Z,12.32
2023-01-31T11:48:18.625Z,12.15
2023-01-31T11:50:52.308Z,13.13
2023-01-31T11:53:38.742Z,8.43
2023-01-31T11:56:20.537Z,12.88
2023-01-31T11:58:53.615Z,13.88
2023-01-31T12:01:24.388Z,9.98
2023-01-31T12:04:03.139Z,14.98
2023-01-31T12:06:41.648Z,10.65
2023-01-31T12:09:24.202Z,11.07
2023-01-31T12:11:59.789Z,13.55
2023-01-31T12:14:39.833Z,17.13
2023-01-31T12:17:13.821Z,10.48
2023-01-31T12:19:50.417Z,15.18
2023-01-31T12:22:36.569Z,11.13
2023-01-31T12:25:33.609Z,11.07
2023-01-31T12:28:20.068Z,11.68
2023-01-31T12:31:15.367Z,13.15
2023-01-31T12:34:10.346Z,11.43
2023-01-31T12:36:52.586Z,10.13
2023-01-31T12:39:54.417Z,10.50
2023-01-31T12:42:54.344Z,11.80
2023-01-31T12:45:37.003Z,12.98
2023-01-31T12:48:46.050Z,11.45
2023-01-31T12:51:39.983Z,9.85
2023-01-31T12:54:30.319Z,11.73
2023-01-31T12:57:21.568Z,13.63
2023-01-31T13:00:10.871Z,12.05
2023-01-31T13:03:03.445Z,12.13
2023-01-31T13:05:51.616Z,11.88
2023-01-31T13:08:22.129Z,10.65
2023-01-31T13:11:02.431Z,15.98
2023-01-31T13:13:49.850Z,15.18
2023-01-31T13:16:24.776Z,15.48
2023-01-31T13:18:54.483Z,19.23
2023-01-31T13:21:27.180Z,15.00
2023-01-31T13:24:00.642Z,14.65
2023-01-31T13:26:35.509Z,12.65
2023-01-31T13:29:29.967Z,14.60
2023-01-31T13:32:21.633Z,12.20
2023-01-31T13:34:55.824Z,16.67
2023-01-31T13:37:23.828Z,18.70
2023-01-31T13:40:03.011Z,12.55
2023-01-31T13:42:32.825Z,11.38
2023-01-31T13:45:04.724Z,14.43
2023-01-31T13:47:47.392Z,14.48
2023-01-31T13:50:42.193Z,14.50
2023-01-31T13:53:25.988Z,14.38
2023-01-31T13:55:53.960Z,13.50
2023-01-31T13:58:35.320Z,15.75
2023-01-31T14:01:13.379Z,10.68
2023-01-31T14:04:16.856Z,10.23
2023-01-31T14:06:54.369Z,11.75
2023-01-31T14:09:33.042Z,9.82
2023-01-31T14:12:10.887Z,9.38
2023-01-31T14:14:41.726Z,19.90
2023-01-31T14:17:21.993Z,12.10
2023-01-31T14:19:49.496Z,11.15
2023-01-31T14:22:34.540Z,13.10
2023-01-31T14:25:03.852Z,11.38
2023-01-31T14:27:57.058Z,13.68
2023-01-31T14:30:32.690Z,13.40
2023-01-31T14:33:07.196Z,12.95
2023-01-31T14:35:46.829Z,28.45
2023-01-31T14:38:51.579Z,16.05
2023-01-31T14:41:49.720Z,15.82
2023-01-31T14:44:49.151Z,12.07
2023-01-31T14:47:34.971Z,13.70
2023-01-31T14:50:31.432Z,9.40
2023-01-31T14:53:14.191Z,10.80
2023-01-31T14:55:58.322Z,12.77
2023-01-31T14:58:29.537Z,12.57
2023-01-31T15:00:59.030Z,16.45
2023-01-31T15:03:48.308Z,13.23
2023-01-31T15:06:24.088Z,12.75
2023-01-31T15:09:14.264Z,9.68
2023-01-31T15:11:47.245Z,14.77
2023-01-31T15:14:35.355Z,10.68
2023-01-31T15:17:06.005Z,10.82
2023-01-31T15:19:52.497Z,17.60
2023-01-31T15:22:22.641Z,12.48
2023-01-31T15:24:54.034Z,15.93
2023-01-31T15:27:28.704Z,10.13
2023-01-31T15:32:53.190Z,13.45
2023-01-31T15:35:32.902Z,16.02
2023-01-31T15:38:06.141Z,12.65
2023-01-31T15:40:33.582Z,15.52
2023-01-31T15:43:24.635Z,13.13
2023-01-31T15:45:52.506Z,13.98
2023-01-31T15:48:22.452Z,17.08
2023-01-31T15:50:56.581Z,14.35
2023-01-31T15:53:31.416Z,13.00
2023-01-31T15:56:05.215Z,17.95
2023-01-31T15:58:34.770Z,15.38
2023-01-31T16:01:03.510Z,14.85
2023-01-31T16:03:39.229Z,14.77
2023-01-31T16:06:22.315Z,13.90
2023-01-31T16:09:00.846Z,14.55
2023-01-31T16:11:34.132Z,15.85
2023-01-31T16:14:07.849Z,17.63
2023-01-31T16:16:36.378Z,17.13
2023-01-31T16:19:04.565Z,15.20
2023-01-31T16:21:45.329Z,19.55
2023-01-31T16:24:18.025Z,18.88
2023-01-31T16:27:11.545Z,17.63
2023-01-31T16:29:46.649Z,20.77
2023-01-31T16:32:29.678Z,18.17
2023-01-31T16:35:01.274Z,13.70
2023-01-31T16:37:32.346Z,15.90
2023-01-31T16:40:21.709Z,15.60
2023-01-31T16:42:49.705Z,18.10
2023-01-31T16:45:56.853Z,21.80
2023-01-31T16:48:29.169Z,17.08
2023-01-31T16:50:58.851Z,17.05
2023-01-31T16:53:27.921Z,16.95
2023-01-31T16:56:13.833Z,22.83
2023-01-31T16:58:46.099Z,23.67
2023-01-31T17:01:16.395Z,24.67
2023-01-31T17:03:44.221Z,21.17
2023-01-31T17:06:19.577Z,17.02
2023-01-31T17:08:47.391Z,19.45
2023-01-31T17:11:28.978Z,18.85
2023-01-31T17:14:05.199Z,17.52
2023-01-31T17:16:38.888Z,18.40
2023-01-31T17:19:06.442Z,18.33
2023-01-31T17:21:41.502Z,17.27
2023-01-31T17:24:13.330Z,20.08
2023-01-31T17:26:40.719Z,17.98
2023-01-31T17:29:08.108Z,20.40
2023-01-31T17:31:35.494Z,19.42
2023-01-31T17:34:03.736Z,17.67
2023-01-31T17:36:31.036Z,20.55
2023-01-31T17:38:58.292Z,14.82
2023-01-31T17:41:25.734Z,19.02
2023-01-31T17:43:53.037Z,16.92
2023-01-31T17:46:20.450Z,15.75
2023-01-31T17:48:47.757Z,19.20
2023-01-31T17:51:15.122Z,22.08
2023-01-31T17:53:50.018Z,19.45
2023-01-31T17:56:18.633Z,16.27
2023-01-31T17:58:45.949Z,20.02
2023-01-31T18:01:14.300Z,16.35
2023-01-31T18:03:42.705Z,20.23
2023-01-31T18:06:11.028Z,17.92
2023-01-31T18:08:38.553Z,19.00
2023-01-31T18:11:16.479Z,17.95
2023-01-31T18:13:44.112Z,21.55
2023-01-31T18:16:18.233Z,20.52
2023-01-31T18:18:45.571Z,19.63
2023-01-31T18:21:16.169Z,16.75
2023-01-31T18:23:43.920Z,18.05
2023-01-31T18:26:11.797Z,21.05
2023-01-31T18:28:39.124Z,24.25
2023-01-31T18:31:13.764Z,21.95
2023-01-31T18:33:46.390Z,24.30
2023-01-31T18:36:17.092Z,23.77
2023-01-31T18:38:46.379Z,25.20
2023-01-31T18:41:18.121Z,24.20
2023-01-31T18:43:46.452Z,26.23
2023-01-31T18:46:14.425Z,26.55
2023-01-31T18:48:41.952Z,23.13
2023-01-31T18:51:11.911Z,25.73
2023-01-31T18:53:41.930Z,23.98
2023-01-31T18:56:18.204Z,21.17
2023-01-31T18:58:49.099Z,23.55
2023-01-31T19:01:18.976Z,24.77
2023-01-31T19:03:50.000Z,21.20
2023-01-31T19:06:20.211Z,22.80
2023-01-31T19:08:49.421Z,23.20
2023-01-31T19:11:18.127Z,22.52
2023-01-31T19:13:45.803Z,19.55
2023-01-31T19:16:19.060Z,23.15
2023-01-31T19:18:47.296Z,26.85
2023-01-31T19:21:15.656Z,22.63
2023-01-31T19:23:43.524Z,18.77
2023-01-31T19:26:12.102Z,20.73
2023-01-31T19:28:40.557Z,12.93
2023-01-31T19:31:10.979Z,15.10
2023-01-31T19:33:39.117Z,13.05
2023-01-31T19:36:11.955Z,16.10
2023-01-31T19:38:39.484Z,11.60
2023-01-31T19:41:16.952Z,12.55
2023-01-31T19:43:44.927Z,10.57
2023-01-31T19:46:12.528Z,11.63
2023-01-31T19:48:39.927Z,11.63
2023-01-31T19:51:09.245Z,8.43
2023-01-31T19:53:37.156Z,10.02
2023-01-31T19:56:05.161Z,12.75
2023-01-31T19:58:32.705Z,12.80
2023-01-31T20:01:09.067Z,10.88
2023-01-31T20:03:36.745Z,15.05
2023-01-31T20:06:07.976Z,12.05
2023-01-31T20:08:36.139Z,9.77
2023-01-31T20:11:05.905Z,13.25
2023-01-31T20:13:33.812Z,12.70
2023-01-31T20:16:03.452Z,9.95
2023-01-31T20:18:31.560Z,11.15
2023-01-31T20:20:59.012Z,10.95
2023-01-31T20:23:28.490Z,11.23
2023-01-31T20:25:56.435Z,13.90
2023-01-31T20:28:24.460Z,13.57
2023-01-31T20:30:52.159Z,14.30
2023-01-31T20:33:19.836Z,15.18
2023-01-31T20:35:47.371Z,12.85
2023-01-31T20:38:18.146Z,17.33
2023-01-31T20:40:53.247Z,14.40
2023-01-31T20:43:23.829Z,19.50
2023-01-31T20:45:51.705Z,18.90
2023-01-31T20:48:22.356Z,19.05
2023-01-31T20:50:56.918Z,18.73
2023-01-31T20:53:24.561Z,21.45
2023-01-31T20:55:57.522Z,23.80
2023-01-31T20:58:26.195Z,16.88
2023-01-31T21:00:57.454Z,20.50
2023-01-31T21:03:24.842Z,19.58
2023-01-31T21:05:52.985Z,18.98
2023-01-31T21:08:21.179Z,19.30
2023-01-31T21:10:49.863Z,25.02
2023-01-31T21:13:18.018Z,21.02
2023-01-31T21:15:59.384Z,19.85
2023-01-31T21:18:28.751Z,25.67
2023-01-31T21:20:56.300Z,20.23
2023-01-31T21:23:24.233Z,19.65
2023-01-31T21:25:51.542Z,25.90
2023-01-31T21:28:18.818Z,25.13
2023-01-31T21:30:56.416Z,28.70
2023-01-31T21:33:25.089Z,23.48
2023-01-31T21:35:52.445Z,23.90
2023-01-31T21:38:20.394Z,24.15
2023-01-31T21:40:47.740Z,22.60
2023-01-31T21:43:16.175Z,19.88
2023-01-31T21:45:43.528Z,26.38
2023-01-31T21:48:29.643Z,21.27
2023-01-31T21:50:57.590Z,21.50
2023-01-31T21:53:27.490Z,21.90
2023-01-31T21:56:08.390Z,17.88
2023-01-31T21:58:37.493Z,24.40
2023-01-31T22:01:19.308Z,28.77
2023-01-31T22:03:48.685Z,24.75
2023-01-31T22:06:18.989Z,20.17
2023-01-31T22:08:53.779Z,21.02
2023-01-31T22:11:21.801Z,22.45
2023-01-31T22:13:52.664Z,21.83
2023-01-31T22:16:22.082Z,21.73
2023-01-31T22:18:49.766Z,20.90
2023-01-31T22:21:23.512Z,26.02
2023-01-31T22:23:53.129Z,23.03
2023-01-31T22:26:31.756Z,23.80
2023-01-31T22:29:01.196Z,19.90
2023-01-31T22:31:29.346Z,20.85
2023-01-31T22:33:57.101Z,17.52
2023-01-31T22:36:24.761Z,23.38
2023-01-31T22:38:52.961Z,20.05
2023-01-31T22:41:20.452Z,18.58
2023-01-31T22:43:50.062Z,22.10
2023-01-31T22:46:20.128Z,19.27
2023-01-31T22:48:49.311Z,22.95
2023-01-31T22:51:23.468Z,19.00
2023-01-31T22:53:50.762Z,23.17
2023-01-31T22:56:21.372Z,19.83
2023-01-31T22:58:54.016Z,15.90
2023-01-31T23:01:24.122Z,20.02
2023-01-31T23:03:55.283Z,17.00
2023-01-31T23:06:22.536Z,19.70
2023-01-31T23:08:49.885Z,21.67
2023-01-31T23:11:18.300Z,17.45
2023-01-31T23:13:46.415Z,19.52
2023-01-31T23:16:45.018Z,12.80
2023-01-31T23:19:13.081Z,18.65
2023-01-31T23:21:42.760Z,14.75
2023-01-31T23:24:12.149Z,17.48
2023-01-31T23:26:39.450Z,25.95
2023-01-31T23:29:06.925Z,25.92
2023-01-31T23:31:34.403Z,18.60
2023-01-31T23:34:01.971Z,18.90
2023-01-31T23:36:29.213Z,17.70
2023-01-31T23:38:56.461Z,20.42
2023-01-31T23:41:23.775Z,21.27
2023-01-31T23:43:51.061Z,17.90
2023-01-31T23:46:18.305Z,19.85
2023-01-31T23:48:45.547Z,14.93
2023-01-31T23:51:12.829Z,14.30
2023-01-31T23:53:40.125Z,14.40
2023-01-31T23:56:07.587Z,16.77
2023-01-31T23:58:34.861Z,19.92
